Time;durP1;ratioP1;P1;durP2;ratioP2;P2;SDS_P1;SDS_P2;PMS_P1;PMS_P2;Temp;Humidity;BMP_temperature;BMP_pressure;BME280_temperature;BME280_humidity;BME280_pressure;Samples;Min_cycle;Max_cycle;Signal;HPM_P1;HPM_P2
2021/03/24 00:01:47;;;;;;;;;;;;;;;1.15;56.71;96628.72;1781707;79;20215;-52
2021/03/24 00:04:16;;;;;;;;;;;;;;;1.15;56.57;96626.16;1770388;80;20554;-52
2021/03/24 00:06:43;;;;;;;;;;;;;;;1.16;56.42;96631.65;1765741;79;20227;-52
2021/03/24 00:09:14;;;;;;;;;;;;;;;1.14;56.20;96633.88;1759846;79;20559;-52
2021/03/24 00:11:43;;;;;;;;;;;;;;;1.10;56.25;96632.70;1782238;80;20222;-51
2021/03/24 00:14:11;;;;;;;;;;;;;;;1.10;56.25;96630.14;1790463;80;20671;-53
2021/03/24 00:16:41;;;;;;;;;;;;;;;1.10;56.14;96633.97;1770674;81;20221;-52
2021/03/24 00:19:09;;;;;;;;;;;;;;;1.08;55.88;96634.44;1772065;80;20228;-51
2021/03/24 00:21:36;;;;;;;;;;;;;;;1.07;55.74;96630.23;1768101;79;20329;-51
2021/03/24 00:24:06;;;;;;;;;;;;;;;1.06;55.85;96626.00;1773089;79;21439;-53
2021/03/24 00:26:33;;;;;;;;;;;;;;;1.08;55.58;96626.77;1738535;81;20547;-53
2021/03/24 00:29:01;;;;;;;;;;;;;;;1.10;55.49;96634.39;1771924;80;20279;-53
2021/03/24 00:31:28;;;;;;;;;;;;;;;1.12;55.35;96636.48;1746470;80;20628;-53
2021/03/24 00:33:56;;;;;;;;;;;;;;;1.16;55.28;96638.04;1767837;79;20500;-53
2021/03/24 00:36:23;;;;;;;;;;;;;;;1.18;55.06;96650.32;1764999;79;23540;-53
2021/03/24 00:38:52;;;;;;;;;;;;;;;1.17;55.00;96645.25;1771294;79;20310;-53
2021/03/24 00:41:19;;;;;;;;;;;;;;;1.18;54.68;96644.38;1768690;80;20409;-53
2021/03/24 00:43:47;;;;;;;;;;;;;;;1.16;54.74;96646.98;1789555;80;20207;-52
2021/03/24 00:46:14;;;;;;;;;;;;;;;1.17;54.68;96651.64;1773020;80;20212;-53
2021/03/24 00:48:41;;;;;;;;;;;;;;;1.15;54.64;96656.83;1755206;79;21438;-52
2021/03/24 00:51:10;;;;;;;;;;;;;;;1.16;54.66;96656.38;1770166;79;20216;-53
2021/03/24 00:53:37;;;;;;;;;;;;;;;1.09;54.44;96662.13;1775410;79;20214;-53
2021/03/24 00:56:05;;;;;;;;;;;;;;;1.05;54.63;96661.81;1770662;80;20224;-52
2021/03/24 00:58:32;;;;;;;;;;;;;;;1.05;54.81;96662.67;1779309;80;21195;-53
2021/03/24 01:01:00;;;;;;;;;;;;;;;1.10;54.54;96669.75;1775511;79;21292;-52
2021/03/24 01:03:34;;;;;;;;;;;;;;;1.13;54.50;96674.36;1770546;80;20216;-52
2021/03/24 01:06:05;;;;;;;;;;;;;;;1.14;54.30;96675.59;1758209;80;20387;-51
2021/03/24 01:08:39;;;;;;;;;;;;;;;1.17;54.18;96678.48;1740661;80;20227;-51
2021/03/24 01:11:07;;;;;;;;;;;;;;;1.18;53.46;96673.32;1744873;81;20490;-52
2021/03/24 01:13:42;;;;;;;;;;;;;;;1.20;53.26;96680.94;1744932;80;20218;-52
2021/03/24 01:16:17;;;;;;;;;;;;;;;1.16;53.32;96677.66;1771396;80;20224;-53
2021/03/24 01:18:58;;;;;;;;;;;;;;;1.13;53.29;96679.48;1754609;79;20237;-55
2021/03/24 01:21:27;;;;;;;;;;;;;;;1.09;53.25;96682.58;1746950;80;20245;-52
2021/03/24 01:23:59;;;;;;;;;;;;;;;1.08;53.26;96682.17;1761484;80;20234;-52
2021/03/24 01:26:31;;;;;;;;;;;;;;;1.08;53.13;96683.45;1755770;80;22132;-52
2021/03/24 01:29:05;;;;;;;;;;;;;;;1.01;53.10;96680.25;1761029;80;20291;-52
2021/03/24 01:31:36;;;;;;;;;;;;;;;1.00;52.79;96690.06;1728041;81;20347;-52
2021/03/24 01:34:08;;;;;;;;;;;;;;;0.95;52.41;96682.98;1745536;81;20591;-52
2021/03/24 01:36:41;;;;;;;;;;;;;;;0.91;52.68;96694.20;1730732;81;20491;-51
2021/03/24 01:39:20;;;;;;;;;;;;;;;0.90;52.54;96691.23;1739394;80;21398;-51
2021/03/24 01:41:53;;;;;;;;;;;;;;;0.89;52.73;96690.41;1763850;80;20657;-52
2021/03/24 01:44:32;;;;;;;;;;;;;;;0.89;53.08;96700.63;1759676;81;20500;-53
2021/03/24 01:47:06;;;;;;;;;;;;;;;0.89;53.08;96700.63;1728636;81;21137;-53
2021/03/24 01:49:42;;;;;;;;;;;;;;;0.90;52.79;96702.31;1737290;81;20547;-51
2021/03/24 01:52:14;;;;;;;;;;;;;;;0.92;52.77;96702.23;1722808;81;21214;-51
2021/03/24 01:54:49;;;;;;;;;;;;;;;0.92;52.94;96698.41;1741508;81;20209;-51
2021/03/24 01:57:22;;;;;;;;;;;;;;;0.93;52.85;96698.81;1729094;82;20233;-52
2021/03/24 01:59:57;;;;;;;;;;;;;;;0.90;52.99;96701.03;1721263;82;20240;-51
2021/03/24 02:02:41;;;;;;;;;;;;;;;0.88;52.76;96701.50;1746433;81;20264;-51
2021/03/24 02:05:17;;;;;;;;;;;;;;;0.88;52.88;96707.06;1739292;81;21167;-52
2021/03/24 02:07:59;;;;;;;;;;;;;;;0.85;52.92;96707.15;1718678;82;20242;-52
2021/03/24 02:10:53;;;;;;;;;;;;;;;0.84;52.66;96708.02;1760680;81;20292;-51
2021/03/24 02:13:26;;;;;;;;;;;;;;;0.83;52.74;96712.30;1756440;81;20229;-54
2021/03/24 02:16:02;;;;;;;;;;;;;;;0.83;52.58;96713.58;1761512;80;20248;-52
2021/03/24 02:18:42;;;;;;;;;;;;;;;0.76;52.54;96716.34;1752421;81;22220;-51
2021/03/24 02:21:22;;;;;;;;;;;;;;;0.69;52.73;96714.42;1764288;80;20288;-51
2021/03/24 02:24:01;;;;;;;;;;;;;;;0.64;52.72;96718.83;1783784;79;20250;-51
2021/03/24 02:26:42;;;;;;;;;;;;;;;0.53;52.74;96721.70;1745912;81;20248;-52
2021/03/24 02:29:16;;;;;;;;;;;;;;;0.47;52.99;96722.70;1755904;81;20447;-53
2021/03/24 02:31:49;;;;;;;;;;;;;;;0.43;52.98;96732.62;1730332;81;21481;-53
2021/03/24 02:34:24;;;;;;;;;;;;;;;0.35;53.17;96729.44;1738018;80;20213;-51
2021/03/24 02:36:55;;;;;;;;;;;;;;;0.32;53.26;96728.25;1767129;81;20227;-52
2021/03/24 02:39:30;;;;;;;;;;;;;;;0.27;53.55;96731.37;1771012;79;20212;-54
2021/03/24 02:42:07;;;;;;;;;;;;;;;0.16;53.96;96732.50;1742089;81;20228;-52
2021/03/24 02:44:40;;;;;;;;;;;;;;;0.07;54.42;96736.56;1773176;80;22149;-52
2021/03/24 02:47:18;;;;;;;;;;;;;;;-0.04;55.00;96734.73;1781001;79;20215;-51
2021/03/24 02:49:59;;;;;;;;;;;;;;;-0.11;55.35;96738.33;1776894;80;20281;-52
2021/03/24 02:52:36;;;;;;;;;;;;;;;-0.21;55.74;96739.00;1769596;79;20247;-53
2021/03/24 02:55:10;;;;;;;;;;;;;;;-0.34;56.34;96744.84;1776181;79;20214;-52
2021/03/24 02:57:46;;;;;;;;;;;;;;;-0.45;56.72;96748.91;1754457;80;21219;-51
2021/03/24 03:00:22;;;;;;;;;;;;;;;-0.60;57.18;96753.94;1775813;80;20256;-52
2021/03/24 03:02:54;;;;;;;;;;;;;;;-0.76;57.70;96756.03;1750863;81;20240;-51
2021/03/24 03:05:37;;;;;;;;;;;;;;;-0.85;58.21;96756.23;1774339;80;20299;-53
2021/03/24 03:08:22;;;;;;;;;;;;;;;-0.89;58.19;96749.95;1737981;79;20287;-53
2021/03/24 03:10:53;;;;;;;;;;;;;;;-0.99;58.49;96745.50;1778755;79;21404;-53
2021/03/24 03:13:36;;;;;;;;;;;;;;;-1.07;58.67;96755.02;1745792;81;20247;-52
2021/03/24 03:16:32;;;;;;;;;;;;;;;-1.15;59.22;96756.48;1776485;80;20487;-51
2021/03/24 03:19:29;;;;;;;;;;;;;;;-1.15;59.28;96756.03;1744234;81;20686;-51
2021/03/24 03:22:06;;;;;;;;;;;;;;;-1.14;59.29;96755.14;1769285;79;20212;-51
2021/03/24 03:24:40;;;;;;;;;;;;;;;-1.06;59.29;96766.89;1770591;79;21377;-52
2021/03/24 03:27:18;;;;;;;;;;;;;;;-1.03;59.19;96759.19;1770930;80;20248;-52
2021/03/24 03:29:52;;;;;;;;;;;;;;;-1.02;59.12;96760.84;1771868;80;20233;-52
2021/03/24 03:32:24;;;;;;;;;;;;;;;-1.04;59.05;96758.77;1749300;80;20543;-52
2021/03/24 03:35:00;;;;;;;;;;;;;;;-1.06;59.23;96758.80;1778985;80;20268;-51
2021/03/24 03:37:30;;;;;;;;;;;;;;;-1.06;59.17;96758.80;1770637;81;21383;-53
2021/03/24 03:40:04;;;;;;;;;;;;;;;-1.04;59.23;96762.59;1780977;79;20210;-51
2021/03/24 03:42:47;;;;;;;;;;;;;;;-1.10;59.22;96764.85;1757475;80;20228;-53
2021/03/24 03:45:22;;;;;;;;;;;;;;;-1.14;59.35;96762.78;1760483;80;20222;-52
2021/03/24 03:47:54;;;;;;;;;;;;;;;-1.16;59.36;96761.98;1731479;81;20220;-51
2021/03/24 03:50:27;;;;;;;;;;;;;;;-1.14;59.38;96769.59;1773855;79;21461;-51
2021/03/24 03:53:25;;;;;;;;;;;;;;;-1.15;59.20;96769.20;1788614;80;20232;-51
2021/03/24 03:55:59;;;;;;;;;;;;;;;-1.26;59.27;96778.33;1789364;79;20239;-51
2021/03/24 03:58:33;;;;;;;;;;;;;;;-1.36;59.35;96776.41;1773114;80;20223;-51
2021/03/24 04:01:07;;;;;;;;;;;;;;;-1.38;59.42;96778.56;1777846;80;20242;-51
2021/03/24 04:04:04;;;;;;;;;;;;;;;-1.40;59.24;96771.41;1745023;80;21298;-51
2021/03/24 04:06:54;;;;;;;;;;;;;;;-1.52;59.18;96779.68;1780791;80;20604;-52
2021/03/24 04:09:21;;;;;;;;;;;;;;;-1.64;59.19;96778.66;1779026;79;20283;-51
2021/03/24 04:11:51;;;;;;;;;;;;;;;-1.73;59.19;96783.91;1768090;80;20237;-52
2021/03/24 04:14:21;;;;;;;;;;;;;;;-1.89;59.19;96790.56;1768850;80;20237;-53
2021/03/24 04:16:49;;;;;;;;;;;;;;;-1.98;59.39;96798.78;1761273;80;21278;-51
2021/03/24 04:19:19;;;;;;;;;;;;;;;-2.05;59.31;96795.07;1727298;81;20217;-51
2021/03/24 04:21:51;;;;;;;;;;;;;;;-2.11;59.53;96800.70;1726512;81;20503;-54
2021/03/24 04:24:22;;;;;;;;;;;;;;;-2.09;59.38;96804.91;1708587;82;20248;-52
2021/03/24 04:26:52;;;;;;;;;;;;;;;-2.11;59.01;96810.86;1732708;82;20290;-52
2021/03/24 04:29:21;;;;;;;;;;;;;;;-2.15;59.29;96812.63;1717328;83;21209;-51
2021/03/24 04:31:52;;;;;;;;;;;;;;;-1.93;58.99;96814.80;1710696;83;20568;-52
2021/03/24 04:34:20;;;;;;;;;;;;;;;-1.58;58.50;96819.27;1727993;81;20317;-52
2021/03/24 04:37:08;;;;;;;;;;;;;;;-1.14;57.27;96818.80;1726142;82;20600;-53
2021/03/24 04:39:43;;;;;;;;;;;;;;;-0.80;56.18;96816.00;1731791;80;20257;-53
2021/03/24 04:42:26;;;;;;;;;;;;;;;-0.49;55.03;96814.05;1742224;81;21123;-51
2021/03/24 04:44:56;;;;;;;;;;;;;;;-0.39;54.62;96812.51;1749184;81;20425;-52
2021/03/24 04:47:26;;;;;;;;;;;;;;;-0.33;53.88;96820.88;1722023;81;20220;-52
2021/03/24 04:49:59;;;;;;;;;;;;;;;-0.43;53.47;96823.66;1737103;81;20313;-53
2021/03/24 04:52:27;;;;;;;;;;;;;;;-0.64;53.75;96824.98;1736721;81;20238;-52
2021/03/24 04:54:57;;;;;;;;;;;;;;;-0.73;53.53;96825.63;1725921;82;21213;-53
2021/03/24 04:57:25;;;;;;;;;;;;;;;-0.38;53.38;96826.08;1737662;81;20240;-53
2021/03/24 05:00:05;;;;;;;;;;;;;;;0.23;52.04;96831.84;1740939;81;20552;-53
2021/03/24 05:02:33;;;;;;;;;;;;;;;0.87;50.30;96833.11;1723693;82;20243;-53
2021/03/24 05:05:04;;;;;;;;;;;;;;;1.49;48.83;96830.87;1742973;81;20280;-55
2021/03/24 05:07:36;;;;;;;;;;;;;;;2.03;47.75;96834.31;1722984;82;40888;-53
2021/03/24 05:10:09;;;;;;;;;;;;;;;2.64;46.14;96832.68;1743649;81;20251;-53
2021/03/24 05:12:44;;;;;;;;;;;;;;;3.28;44.65;96832.53;1693967;84;20215;-52
2021/03/24 05:15:19;;;;;;;;;;;;;;;3.79;42.82;96827.55;1722071;82;20506;-52
2021/03/24 05:17:47;;;;;;;;;;;;;;;3.80;41.96;96842.07;1737451;82;20220;-52
2021/03/24 05:20:24;;;;;;;;;;;;;;;3.77;42.38;96844.75;1731036;81;22203;-52
2021/03/24 05:22:51;;;;;;;;;;;;;;;4.19;41.68;96842.66;1735863;81;20253;-52
2021/03/24 05:25:34;;;;;;;;;;;;;;;4.70;41.32;96852.07;1776612;80;20223;-52
2021/03/24 05:28:26;;;;;;;;;;;;;;;5.43;39.83;96844.59;1738948;81;22002;-53
2021/03/24 05:31:03;;;;;;;;;;;;;;;5.85;38.73;96847.33;1778837;80;20234;-52
2021/03/24 05:33:34;;;;;;;;;;;;;;;5.88;37.73;96847.66;1733178;81;21152;-52
2021/03/24 05:36:18;;;;;;;;;;;;;;;5.74;37.96;96852.18;1735709;81;20284;-53
2021/03/24 05:38:47;;;;;;;;;;;;;;;6.21;37.60;96850.83;1756222;80;20207;-53
2021/03/24 05:41:28;;;;;;;;;;;;;;;6.39;36.47;96858.11;1782343;80;20528;-54
2021/03/24 05:44:08;;;;;;;;;;;;;;;5.68;37.34;96861.01;1734236;82;20347;-53
2021/03/24 05:47:14;;;;;;;;;;;;;;;5.29;38.15;96866.24;1766676;80;23543;-52
2021/03/24 05:50:02;;;;;;;;;;;;;;;5.57;37.49;96859.38;1766983;79;20249;-54
2021/03/24 05:52:52;;;;;;;;;;;;;;;6.06;36.78;96862.25;1773221;79;20219;-54
2021/03/24 05:55:44;;;;;;;;;;;;;;;6.69;36.00;96857.48;1788739;79;20218;-53
2021/03/24 05:58:15;;;;;;;;;;;;;;;7.13;35.51;96860.81;1666625;86;20255;-53
2021/03/24 06:00:47;;;;;;;;;;;;;;;7.79;34.28;96860.32;1673821;84;22193;-53
2021/03/24 06:03:31;;;;;;;;;;;;;;;8.23;32.96;96860.41;1712909;79;20495;-53
2021/03/24 06:06:15;;;;;;;;;;;;;;;8.63;32.67;96857.31;1768697;80;20528;-53
2021/03/24 06:09:03;;;;;;;;;;;;;;;9.05;32.02;96857.47;1768117;80;20234;-54
2021/03/24 06:11:48;;;;;;;;;;;;;;;9.45;32.00;96853.73;1758501;80;20284;-53
2021/03/24 06:14:23;;;;;;;;;;;;;;;10.12;31.44;96855.95;1770739;81;21272;-53
2021/03/24 06:17:17;;;;;;;;;;;;;;;10.82;30.33;96853.58;1745277;81;20237;-53
2021/03/24 06:19:52;;;;;;;;;;;;;;;11.29;29.53;96854.33;1774288;79;20568;-53
2021/03/24 06:22:40;;;;;;;;;;;;;;;11.93;28.75;96855.02;1767688;79;20233;-54
2021/03/24 06:25:32;;;;;;;;;;;;;;;12.41;27.86;96859.84;1760540;80;20241;-54
2021/03/24 06:28:07;;;;;;;;;;;;;;;12.54;27.68;96868.39;1764470;80;21340;-52
2021/03/24 06:30:41;;;;;;;;;;;;;;;12.80;27.37;96869.05;1766646;80;20257;-53
2021/03/24 06:33:33;;;;;;;;;;;;;;;13.32;26.72;96864.30;1743247;81;20208;-55
2021/03/24 06:36:33;;;;;;;;;;;;;;;13.71;26.58;96870.42;1726412;81;20496;-54
2021/03/24 06:39:20;;;;;;;;;;;;;;;14.42;25.41;96867.37;1737270;82;20222;-52
2021/03/24 06:42:23;;;;;;;;;;;;;;;15.06;24.73;96865.14;1745247;82;22585;-53
2021/03/24 06:45:10;;;;;;;;;;;;;;;15.81;24.40;96861.33;1760253;80;20285;-53
2021/03/24 06:47:59;;;;;;;;;;;;;;;16.63;23.54;96869.80;1767910;80;20238;-53
2021/03/24 06:50:51;;;;;;;;;;;;;;;17.35;22.85;96868.08;1760295;81;20510;-53
2021/03/24 06:53:28;;;;;;;;;;;;;;;17.87;22.15;96868.41;1771618;80;20244;-54
2021/03/24 06:56:30;;;;;;;;;;;;;;;18.37;21.34;96863.16;1771468;80;21388;-54
2021/03/24 06:59:35;;;;;;;;;;;;;;;18.90;20.52;96868.89;1765897;80;20226;-53
2021/03/24 07:02:23;;;;;;;;;;;;;;;19.32;20.31;96871.28;1791368;80;20250;-52
2021/03/24 07:05:29;;;;;;;;;;;;;;;19.71;19.73;96872.12;1777605;80;20295;-53
2021/03/24 07:08:17;;;;;;;;;;;;;;;19.83;19.20;96875.31;1774933;80;20219;-53
2021/03/24 07:11:02;;;;;;;;;;;;;;;19.78;19.11;96882.88;1741407;82;20247;-53
2021/03/24 07:13:51;;;;;;;;;;;;;;;20.03;19.01;96883.30;1775685;79;20221;-53
2021/03/24 07:16:51;;;;;;;;;;;;;;;20.36;18.35;96887.31;1772864;79;20220;-54
2021/03/24 07:19:31;;;;;;;;;;;;;;;20.56;18.05;96889.14;1752740;80;20295;-53
2021/03/24 07:22:03;;;;;;;;;;;;;;;20.76;17.99;96888.35;1735732;81;20314;-53
2021/03/24 07:24:38;;;;;;;;;;;;;;;21.12;17.68;96894.59;1760958;81;20224;-53
2021/03/24 07:27:28;;;;;;;;;;;;;;;21.30;17.38;96897.55;1761452;80;20253;-53
2021/03/24 07:30:05;;;;;;;;;;;;;;;21.38;17.06;96896.67;1753373;80;20482;-54
2021/03/24 07:32:48;;;;;;;;;;;;;;;21.40;17.16;96896.85;1765402;80;20704;-53
2021/03/24 07:35:21;;;;;;;;;;;;;;;21.60;17.02;96896.50;1731280;83;20239;-54
2021/03/24 07:38:11;;;;;;;;;;;;;;;21.79;16.86;96894.78;1732557;81;21174;-53
2021/03/24 07:41:04;;;;;;;;;;;;;;;21.93;16.54;96902.97;1733424;81;21268;-55
2021/03/24 07:43:47;;;;;;;;;;;;;;;21.96;16.30;96896.84;1714493;83;20588;-53
2021/03/24 07:46:30;;;;;;;;;;;;;;;22.13;16.08;96892.80;1703224;82;20293;-54
2021/03/24 07:49:36;;;;;;;;;;;;;;;22.05;16.35;96896.30;1740504;81;20240;-53
2021/03/24 07:52:19;;;;;;;;;;;;;;;22.12;16.35;96899.06;1715511;82;21407;-53
2021/03/24 07:55:10;;;;;;;;;;;;;;;22.26;16.09;96900.16;1741179;81;20248;-54
2021/03/24 07:57:58;;;;;;;;;;;;;;;22.39;16.19;96899.12;1727720;82;20229;-54
2021/03/24 08:00:54;;;;;;;;;;;;;;;22.51;15.61;96897.70;1716598;81;20503;-56
2021/03/24 08:03:26;;;;;;;;;;;;;;;21.93;16.05;96910.39;1730254;81;20255;-53
2021/03/24 08:06:03;;;;;;;;;;;;;;;21.77;16.31;96905.98;1747817;82;21218;-53
2021/03/24 08:08:37;;;;;;;;;;;;;;;21.83;16.23;96910.59;1748097;82;20518;-54
2021/03/24 08:11:11;;;;;;;;;;;;;;;22.05;15.79;96906.36;1735394;82;20241;-55
2021/03/24 08:13:46;;;;;;;;;;;;;;;22.18;15.81;96908.44;1718750;83;20237;-54
2021/03/24 08:16:49;;;;;;;;;;;;;;;22.47;15.95;96908.31;1702099;84;20217;-54
2021/03/24 08:19:43;;;;;;;;;;;;;;;22.69;15.38;96911.95;1725990;83;20620;-54
2021/03/24 08:22:17;;;;;;;;;;;;;;;22.60;16.08;96914.34;1755387;81;20221;-54
2021/03/24 08:25:02;;;;;;;;;;;;;;;22.92;15.92;96917.22;1703295;84;20227;-54
2021/03/24 08:27:46;;;;;;;;;;;;;;;23.17;15.40;96917.55;1719470;83;20293;-53
2021/03/24 08:30:27;;;;;;;;;;;;;;;23.39;15.38;96915.83;1681633;85;20230;-54
2021/03/24 08:33:00;;;;;;;;;;;;;;;23.46;15.28;96918.91;1710349;84;22227;-54
2021/03/24 08:35:46;;;;;;;;;;;;;;;23.38;14.84;96920.83;1730998;82;20215;-53
2021/03/24 08:38:37;;;;;;;;;;;;;;;23.00;14.76;96913.70;1767118;81;20253;-54
2021/03/24 08:41:24;;;;;;;;;;;;;;;22.61;14.72;96914.66;1767676;81;20224;-53
2021/03/24 08:44:04;;;;;;;;;;;;;;;22.49;14.69;96920.86;1761218;81;20238;-53
2021/03/24 08:46:46;;;;;;;;;;;;;;;22.01;15.09;96916.96;1759736;80;20237;-54
2021/03/24 08:49:19;;;;;;;;;;;;;;;21.77;15.55;96921.02;1795403;79;20242;-54
2021/03/24 08:51:53;;;;;;;;;;;;;;;21.65;15.67;96931.14;1795546;80;20218;-53
2021/03/24 08:54:53;;;;;;;;;;;;;;;21.82;15.10;96924.78;1795540;79;20269;-54
2021/03/24 08:57:33;;;;;;;;;;;;;;;21.80;14.80;96918.86;1765905;81;20216;-54
2021/03/24 09:00:28;;;;;;;;;;;;;;;21.73;15.28;96914.42;1741328;81;21397;-53
2021/03/24 09:03:09;;;;;;;;;;;;;;;21.00;14.86;96917.52;1740483;82;20684;-53
2021/03/24 09:05:57;;;;;;;;;;;;;;;19.78;15.59;96922.36;1743437;81;20220;-53
2021/03/24 09:08:38;;;;;;;;;;;;;;;19.29;15.91;96926.36;1739642;82;20237;-53
2021/03/24 09:11:12;;;;;;;;;;;;;;;18.99;16.71;96919.72;1729161;82;20236;-54
2021/03/24 09:13:56;;;;;;;;;;;;;;;19.11;16.87;96915.03;1741917;80;20614;-53
2021/03/24 09:16:50;;;;;;;;;;;;;;;19.44;16.99;96912.14;1740388;82;20769;-55
2021/03/24 09:19:55;;;;;;;;;;;;;;;19.66;17.09;96912.08;1740289;82;20214;-54
2021/03/24 09:22:58;;;;;;;;;;;;;;;19.91;16.66;96912.20;1660634;84;20327;-54
2021/03/24 09:25:49;;;;;;;;;;;;;;;20.17;16.51;96906.86;1723447;83;20247;-54
2021/03/24 09:28:34;;;;;;;;;;;;;;;20.34;16.19;96912.17;1724444;83;20683;-54
2021/03/24 09:31:30;;;;;;;;;;;;;;;20.12;16.69;96903.89;1724395;83;20249;-54
2021/03/24 09:34:05;;;;;;;;;;;;;;;19.66;17.15;96906.81;1709228;83;20244;-53
2021/03/24 09:36:52;;;;;;;;;;;;;;;19.27;17.17;96908.56;1702608;83;20253;-54
2021/03/24 09:39:43;;;;;;;;;;;;;;;18.78;17.61;96907.37;1724536;83;20369;-54
2021/03/24 09:42:37;;;;;;;;;;;;;;;18.26;18.14;96906.75;1735707;82;21219;-54
2021/03/24 09:45:26;;;;;;;;;;;;;;;17.48;18.49;96910.08;1736304;82;20231;-54
2021/03/24 09:48:15;;;;;;;;;;;;;;;17.29;18.67;96913.58;1892855;76;20159;-54
2021/03/24 09:50:49;;;;;;;;;;;;;;;17.53;17.99;96906.18;1862989;77;20265;-53
2021/03/24 09:53:20;;;;;;;;;;;;;;;17.86;17.69;96904.78;1860906;77;21382;-54
2021/03/24 09:55:58;;;;;;;;;;;;;;;17.97;17.14;96905.11;1856937;77;20490;-54
2021/03/24 09:58:30;;;;;;;;;;;;;;;18.24;16.80;96907.36;1819862;77;20105;-54
2021/03/24 10:01:07;;;;;;;;;;;;;;;18.36;16.84;96901.75;1769046;80;20266;-53
2021/03/24 10:03:47;;;;;;;;;;;;;;;18.59;16.92;96899.99;1804187;79;20400;-54
2021/03/24 10:06:40;;;;;;;;;;;;;;;18.82;16.04;96906.92;1804281;79;20503;-53
2021/03/24 10:09:16;;;;;;;;;;;;;;;18.86;16.27;96897.77;1804104;79;20144;-54
2021/03/24 10:12:08;;;;;;;;;;;;;;;19.10;16.47;96898.44;1800647;79;20559;-54
2021/03/24 10:14:50;;;;;;;;;;;;;;;19.37;16.82;96896.63;1801003;79;20236;-53
2021/03/24 10:17:24;;;;;;;;;;;;;;;19.40;16.29;96887.11;1679927;79;20240;-53
2021/03/24 10:20:18;;;;;;;;;;;;;;;19.02;15.99;96893.63;1790232;79;20700;-53
2021/03/24 10:22:52;;;;;;;;;;;;;;;18.64;16.61;96891.16;1769386;81;20249;-53
2021/03/24 10:25:38;;;;;;;;;;;;;;;18.42;16.41;96895.09;1780320;79;20208;-54
2021/03/24 10:28:16;;;;;;;;;;;;;;;18.38;16.27;96888.47;1800805;79;20212;-53
2021/03/24 10:30:46;;;;;;;;;;;;;;;17.91;16.29;96896.50;1800146;78;20292;-53
2021/03/24 10:33:27;;;;;;;;;;;;;;;17.39;17.45;96901.75;1767715;81;21377;-53
2021/03/24 10:36:00;;;;;;;;;;;;;;;17.38;17.18;96904.02;1768231;81;20216;-54
2021/03/24 10:38:54;;;;;;;;;;;;;;;17.57;17.67;96903.13;1768349;81;20220;-54
2021/03/24 10:41:43;;;;;;;;;;;;;;;17.80;17.43;96893.08;1748827;80;20508;-54
2021/03/24 10:44:20;;;;;;;;;;;;;;;17.71;17.07;96899.19;1773957;80;20242;-55
2021/03/24 10:47:09;;;;;;;;;;;;;;;17.70;17.13;96896.25;1784607;80;21266;-54
2021/03/24 10:50:02;;;;;;;;;;;;;;;17.87;17.07;96892.50;1796696;80;20233;-54
2021/03/24 10:52:41;;;;;;;;;;;;;;;17.62;17.48;96890.41;1797341;79;20222;-52
2021/03/24 10:55:18;;;;;;;;;;;;;;;17.14;17.40;96884.00;1793802;80;20222;-54
2021/03/24 10:57:58;;;;;;;;;;;;;;;16.46;17.94;96884.41;1765819;81;20228;-53
2021/03/24 11:00:33;;;;;;;;;;;;;;;15.89;18.82;96883.37;1765337;81;21184;-54
2021/03/24 11:03:22;;;;;;;;;;;;;;;15.33;19.32;96887.27;1767407;80;20240;-54
2021/03/24 11:05:55;;;;;;;;;;;;;;;14.88;19.06;96891.02;1765465;81;20208;-54
2021/03/24 11:08:36;;;;;;;;;;;;;;;14.51;19.13;96889.64;1765285;79;20229;-54
2021/03/24 11:11:24;;;;;;;;;;;;;;;14.25;19.75;96892.23;1780645;80;20338;-54
2021/03/24 11:13:58;;;;;;;;;;;;;;;13.89;20.04;96884.61;1796778;80;21206;-52
2021/03/24 11:16:29;;;;;;;;;;;;;;;13.37;21.06;96888.68;1796712;80;20218;-54
2021/03/24 11:19:32;;;;;;;;;;;;;;;12.66;22.35;96880.52;1796563;80;20219;-53
2021/03/24 11:22:30;;;;;;;;;;;;;;;12.04;22.08;96881.56;1787690;80;20218;-53
2021/03/24 11:25:01;;;;;;;;;;;;;;;11.59;22.97;96880.78;1765239;80;20216;-54
2021/03/24 11:27:53;;;;;;;;;;;;;;;11.48;22.55;96878.55;1765216;81;21206;-53
2021/03/24 11:30:32;;;;;;;;;;;;;;;11.44;22.61;96883.13;1764574;81;20259;-53
2021/03/24 11:33:21;;;;;;;;;;;;;;;11.19;23.93;96882.22;1765413;81;20212;-54
2021/03/24 11:36:17;;;;;;;;;;;;;;;11.05;23.85;96876.69;1781524;80;20471;-54
2021/03/24 11:39:06;;;;;;;;;;;;;;;11.06;23.42;96872.31;1765281;81;20229;-54
2021/03/24 11:41:35;;;;;;;;;;;;;;;10.93;24.32;96877.98;1786951;80;21251;-53
2021/03/24 11:44:12;;;;;;;;;;;;;;;10.91;24.78;96877.26;1776375;80;20607;-53
2021/03/24 11:46:43;;;;;;;;;;;;;;;10.73;24.51;96869.76;1769292;80;20234;-54
2021/03/24 11:49:26;;;;;;;;;;;;;;;10.72;24.40;96868.56;1787814;80;20222;-53
2021/03/24 11:52:33;;;;;;;;;;;;;;;10.65;23.95;96874.63;1787933;80;20273;-54
2021/03/24 11:55:13;;;;;;;;;;;;;;;10.62;24.08;96875.64;1786926;80;21374;-53
2021/03/24 11:57:56;;;;;;;;;;;;;;;10.51;23.73;96871.66;1778370;80;20242;-53
2021/03/24 12:00:36;;;;;;;;;;;;;;;10.47;24.55;96868.88;1789457;80;20226;-53
2021/03/24 12:03:17;;;;;;;;;;;;;;;10.40;24.90;96871.05;1804118;79;20493;-53
2021/03/24 12:05:58;;;;;;;;;;;;;;;10.55;24.89;96870.98;1804084;79;20214;-54
2021/03/24 12:08:46;;;;;;;;;;;;;;;10.74;24.44;96874.47;1788142;79;20266;-54
2021/03/24 12:11:18;;;;;;;;;;;;;;;10.89;24.75;96872.61;1754613;81;20232;-55
2021/03/24 12:13:48;;;;;;;;;;;;;;;10.84;24.70;96875.55;1765348;80;20474;-54
2021/03/24 12:16:18;;;;;;;;;;;;;;;10.68;24.78;96882.21;1801721;79;20245;-54
2021/03/24 12:18:49;;;;;;;;;;;;;;;10.56;25.49;96882.56;1796770;79;20292;-54
2021/03/24 12:21:29;;;;;;;;;;;;;;;10.48;25.08;96881.76;1772357;81;21203;-54
2021/03/24 12:23:59;;;;;;;;;;;;;;;10.46;25.18;96880.18;1785985;79;20229;-54
2021/03/24 12:26:35;;;;;;;;;;;;;;;10.42;25.21;96877.44;1782297;79;20240;-54
2021/03/24 12:29:12;;;;;;;;;;;;;;;10.26;24.63;96884.05;1772521;79;20217;-54
2021/03/24 12:31:45;;;;;;;;;;;;;;;10.12;25.44;96881.88;1780136;79;20220;-54
2021/03/24 12:34:14;;;;;;;;;;;;;;;9.97;25.19;96890.64;1801776;79;21356;-55
2021/03/24 12:36:52;;;;;;;;;;;;;;;10.17;24.98;96887.25;1782703;79;20667;-53
2021/03/24 12:39:29;;;;;;;;;;;;;;;10.48;25.31;96888.24;1797262;79;20221;-55
2021/03/24 12:42:14;;;;;;;;;;;;;;;10.81;25.38;96883.05;1777373;79;20281;-54
2021/03/24 12:44:42;;;;;;;;;;;;;;;11.09;24.19;96885.09;1789912;79;20270;-53
2021/03/24 12:47:34;;;;;;;;;;;;;;;11.35;23.46;96882.48;1776881;79;22116;-54
2021/03/24 12:50:18;;;;;;;;;;;;;;;11.54;23.33;96886.75;1756789;80;20531;-54
2021/03/24 12:52:50;;;;;;;;;;;;;;;11.79;23.45;96879.83;1753395;80;20277;-55
2021/03/24 12:55:19;;;;;;;;;;;;;;;12.08;23.10;96873.06;1781384;79;20210;-55
2021/03/24 12:58:02;;;;;;;;;;;;;;;12.40;23.22;96878.53;1758210;80;20273;-54
2021/03/24 13:00:49;;;;;;;;;;;;;;;12.66;22.64;96878.36;1761717;80;21403;-54
2021/03/24 13:03:54;;;;;;;;;;;;;;;12.82;22.81;96885.87;1752350;80;20291;-55
2021/03/24 13:06:47;;;;;;;;;;;;;;;13.06;22.22;96877.51;1757766;80;20261;-54
2021/03/24 13:09:28;;;;;;;;;;;;;;;13.02;22.45;96883.87;1773650;80;20218;-54
2021/03/24 13:12:19;;;;;;;;;;;;;;;12.77;22.45;96878.39;1785859;80;20222;-53
2021/03/24 13:15:19;;;;;;;;;;;;;;;12.72;22.05;96877.09;1786324;79;20820;-53
2021/03/24 13:17:53;;;;;;;;;;;;;;;12.74;21.55;96882.53;1759362;80;20233;-53
2021/03/24 13:20:40;;;;;;;;;;;;;;;12.80;21.74;96878.66;1756475;80;20519;-53
2021/03/24 13:23:29;;;;;;;;;;;;;;;12.79;21.46;96875.20;1761743;80;20289;-54
2021/03/24 13:26:02;;;;;;;;;;;;;;;12.60;21.37;96866.64;1756940;80;20216;-53
2021/03/24 13:28:33;;;;;;;;;;;;;;;12.32;22.69;96869.16;1767333;79;21370;-53
2021/03/24 13:31:19;;;;;;;;;;;;;;;11.93;22.71;96862.81;1767475;80;20233;-52
2021/03/24 13:33:57;;;;;;;;;;;;;;;11.50;22.88;96862.41;1752604;80;20238;-53
2021/03/24 13:36:28;;;;;;;;;;;;;;;11.05;23.41;96863.70;1755127;80;20500;-53
2021/03/24 13:39:15;;;;;;;;;;;;;;;10.61;23.63;96866.70;1759942;80;20238;-53
2021/03/24 13:41:46;;;;;;;;;;;;;;;10.18;24.12;96871.59;1764801;80;22291;-54
2021/03/24 13:44:35;;;;;;;;;;;;;;;9.90;24.15;96864.72;1766611;80;20255;-54
2021/03/24 13:47:09;;;;;;;;;;;;;;;9.87;24.25;96859.77;1760076;79;20249;-54
2021/03/24 13:49:55;;;;;;;;;;;;;;;9.97;23.78;96860.83;1797930;79;20245;-53
2021/03/24 13:52:46;;;;;;;;;;;;;;;9.99;23.79;96851.66;1777920;79;20212;-53
2021/03/24 13:55:37;;;;;;;;;;;;;;;9.81;23.92;96866.14;1784999;79;21215;-54